createdAt,value
2022-12-03T00:00:41.600Z,0
2022-12-03T00:01:41.803Z,0
2022-12-03T00:02:42.183Z,0
2022-12-03T00:03:42.771Z,0
2022-12-03T00:04:43.042Z,0
2022-12-03T00:05:54.734Z,0
2022-12-03T00:06:45.776Z,0
2022-12-03T00:07:46.578Z,0
2022-12-03T00:08:46.650Z,0
2022-12-03T00:09:47.284Z,0
2022-12-03T00:10:48.197Z,0
2022-12-03T00:11:49.117Z,0
2022-12-03T00:12:49.151Z,0
2022-12-03T00:13:50.339Z,0
2022-12-03T00:14:56.108Z,0
2022-12-03T00:15:52.045Z,0
2022-12-03T00:16:52.073Z,0
2022-12-03T00:17:52.705Z,0
2022-12-03T00:18:52.853Z,0
2022-12-03T00:19:53.468Z,0
2022-12-03T00:20:54.965Z,0
2022-12-03T00:21:55.199Z,0
2022-12-03T00:22:55.766Z,0
2022-12-03T00:23:56.103Z,0
2022-12-03T00:24:58.152Z,0
2022-12-03T00:25:57.193Z,0
2022-12-03T00:26:58.430Z,0
2022-12-03T00:27:58.947Z,0
2022-12-03T00:28:59.135Z,0
2022-12-03T00:29:58.754Z,0
2022-12-03T00:30:59.723Z,0
2022-12-03T00:31:59.524Z,0
2022-12-03T00:32:59.943Z,0
2022-12-03T00:34:00.545Z,0
2022-12-03T00:35:01.997Z,0
2022-12-03T00:36:02.197Z,0
2022-12-03T00:37:02.526Z,0
2022-12-03T00:38:02.701Z,0
2022-12-03T00:39:03.333Z,0
2022-12-03T00:40:04.833Z,0
2022-12-03T00:41:05.018Z,0
2022-12-03T00:42:05.933Z,0
2022-12-03T00:43:06.954Z,0
2022-12-03T00:44:06.857Z,0
2022-12-03T00:45:07.502Z,0
2022-12-03T00:46:09.192Z,0
2022-12-03T00:47:10.465Z,0
2022-12-03T00:48:09.705Z,0
2022-12-03T00:49:09.825Z,0
2022-12-03T00:50:10.735Z,0
2022-12-03T00:51:11.239Z,0
2022-12-03T00:52:10.876Z,0
2022-12-03T00:53:12.163Z,0
2022-12-03T00:54:12.270Z,0
2022-12-03T00:55:12.506Z,0
2022-12-03T00:56:13.055Z,0
2022-12-03T00:57:12.654Z,0
2022-12-03T00:58:14.182Z,0
2022-12-03T00:59:13.802Z,0
2022-12-03T01:00:14.715Z,0
2022-12-03T01:01:16.267Z,0
2022-12-03T01:02:16.747Z,0
2022-12-03T01:03:16.594Z,0
2022-12-03T01:04:17.429Z,0
2022-12-03T01:05:18.931Z,0
2022-12-03T01:06:19.478Z,0
2022-12-03T01:07:19.388Z,0
2022-12-03T01:08:21.021Z,0
2022-12-03T01:09:20.631Z,0
2022-12-03T01:10:21.564Z,0
2022-12-03T01:11:22.533Z,0
2022-12-03T01:12:22.721Z,0
2022-12-03T01:13:23.330Z,0
2022-12-03T01:14:23.263Z,0
2022-12-03T01:15:23.168Z,0
2022-12-03T01:16:23.864Z,0
2022-12-03T01:17:24.668Z,0
2022-12-03T01:18:25.573Z,0
2022-12-03T01:19:26.193Z,0
2022-12-03T01:20:27.083Z,0
2022-12-03T01:21:27.010Z,0
2022-12-03T01:22:27.666Z,0
2022-12-03T01:23:28.443Z,0
2022-12-03T01:24:28.619Z,0
2022-12-03T01:25:28.526Z,0
2022-12-03T01:26:29.456Z,0
2022-12-03T01:27:30.376Z,0
2022-12-03T01:28:31.321Z,0
2022-12-03T01:29:31.495Z,0
2022-12-03T01:30:32.700Z,0
2022-12-03T01:31:32.783Z,0
2022-12-03T01:32:33.369Z,0
2022-12-03T01:33:34.671Z,0
2022-12-03T01:34:34.584Z,0
2022-12-03T01:35:35.495Z,0
2022-12-03T01:36:35.750Z,0
2022-12-03T01:37:35.681Z,0
2022-12-03T01:38:36.159Z,0
2022-12-03T01:39:36.363Z,0
2022-12-03T01:40:35.996Z,0
2022-12-03T01:41:36.628Z,0
2022-12-03T01:42:37.240Z,0
2022-12-03T01:43:38.550Z,0
2022-12-03T01:44:38.463Z,0
2022-12-03T01:45:39.409Z,0
2022-12-03T01:46:39.927Z,0
2022-12-03T01:47:39.387Z,0
2022-12-03T01:48:41.014Z,0
2022-12-03T01:49:42.223Z,0
2022-12-03T01:50:42.489Z,0
2022-12-03T01:51:42.711Z,0
2022-12-03T01:52:43.078Z,0
2022-12-03T01:53:44.374Z,0
2022-12-03T01:54:44.262Z,0
2022-12-03T01:55:48.736Z,0
2022-12-03T01:56:45.914Z,0
2022-12-03T01:57:46.805Z,0
2022-12-03T01:58:47.322Z,0
2022-12-03T01:59:46.926Z,0
2022-12-03T02:00:47.840Z,0
2022-12-03T02:01:49.296Z,0
2022-12-03T02:02:49.613Z,0
2022-12-03T02:03:50.939Z,0
2022-12-03T02:04:51.339Z,0
2022-12-03T02:05:51.557Z,0
2022-12-03T02:06:52.053Z,0
2022-12-03T02:07:52.418Z,0
2022-12-03T02:08:52.470Z,0
2022-12-03T02:09:53.407Z,0
2022-12-03T02:10:53.908Z,0
2022-12-03T02:11:53.833Z,0
2022-12-03T02:12:54.316Z,0
2022-12-03T02:13:55.044Z,0
2022-12-03T02:14:56.055Z,0
2022-12-03T02:15:56.609Z,0
2022-12-03T02:16:57.016Z,0
2022-12-03T02:17:57.531Z,0
2022-12-03T02:18:57.421Z,0
2022-12-03T02:19:57.613Z,0
2022-12-03T02:20:58.249Z,0
2022-12-03T02:21:59.205Z,0
2022-12-03T02:22:59.845Z,0
2022-12-03T02:24:00.844Z,0
2022-12-03T02:25:02.267Z,0
2022-12-03T02:26:02.475Z,0
2022-12-03T02:27:02.666Z,0
2022-12-03T02:28:03.007Z,0
2022-12-03T02:29:04.520Z,0
2022-12-03T02:30:04.133Z,0
2022-12-03T02:31:05.565Z,0
2022-12-03T02:32:05.770Z,0
2022-12-03T02:33:05.394Z,0
2022-12-03T02:34:06.123Z,0
2022-12-03T02:35:06.851Z,0
2022-12-03T02:36:13.015Z,0
2022-12-03T02:37:07.935Z,0
2022-12-03T02:38:08.587Z,0
2022-12-03T02:39:08.780Z,0
2022-12-03T02:40:09.407Z,0
2022-12-03T02:41:09.321Z,0
2022-12-03T02:42:10.539Z,0
2022-12-03T02:43:10.875Z,0
2022-12-03T02:44:11.885Z,0
2022-12-03T02:45:16.601Z,0
2022-12-03T02:46:12.885Z,0
2022-12-03T02:47:13.745Z,0
2022-12-03T02:48:13.948Z,0
2022-12-03T02:49:14.581Z,0
2022-12-03T02:50:14.913Z,0
2022-12-03T02:51:16.100Z,0
2022-12-03T02:52:16.324Z,0
2022-12-03T02:53:17.269Z,0
2022-12-03T02:54:17.834Z,0
2022-12-03T02:55:17.743Z,0
2022-12-03T02:56:17.960Z,0
2022-12-03T02:57:17.853Z,0
2022-12-03T02:58:19.037Z,0
2022-12-03T02:59:19.269Z,0
2022-12-03T03:00:19.484Z,0
2022-12-03T03:01:20.421Z,0
2022-12-03T03:02:20.517Z,0
2022-12-03T03:03:20.790Z,0
2022-12-03T03:04:21.516Z,0
2022-12-03T03:05:22.705Z,0
2022-12-03T03:06:22.912Z,0
2022-12-03T03:07:23.786Z,0
2022-12-03T03:08:24.489Z,0
2022-12-03T03:09:24.693Z,0
2022-12-03T03:10:25.326Z,0
2022-12-03T03:11:26.821Z,0
2022-12-03T03:12:27.438Z,0
2022-12-03T03:13:27.857Z,0
2022-12-03T03:14:28.447Z,0
2022-12-03T03:15:28.651Z,0
2022-12-03T03:16:29.191Z,0
2022-12-03T03:17:29.568Z,0
2022-12-03T03:18:30.761Z,0
2022-12-03T03:19:30.970Z,0
2022-12-03T03:20:31.577Z,0
2022-12-03T03:21:31.185Z,0
2022-12-03T03:22:32.679Z,0
2022-12-03T03:23:32.617Z,0
2022-12-03T03:24:33.616Z,0
2022-12-03T03:25:34.821Z,0
2022-12-03T03:26:35.729Z,0
2022-12-03T03:27:36.358Z,0
2022-12-03T03:28:37.548Z,0
2022-12-03T03:29:38.061Z,0
2022-12-03T03:30:38.408Z,0
2022-12-03T03:31:39.654Z,0
2022-12-03T03:32:39.755Z,0
2022-12-03T03:33:40.363Z,0
2022-12-03T03:34:41.363Z,0
2022-12-03T03:35:41.268Z,0
2022-12-03T03:36:42.182Z,0
2022-12-03T03:37:43.118Z,0
2022-12-03T03:38:43.784Z,0
2022-12-03T03:39:44.252Z,0
2022-12-03T03:40:44.159Z,0
2022-12-03T03:41:45.392Z,0
2022-12-03T03:42:45.748Z,0
2022-12-03T03:43:46.638Z,0
2022-12-03T03:44:47.657Z,0
2022-12-03T03:45:48.462Z,0
2022-12-03T03:46:48.482Z,0
2022-12-03T03:47:49.396Z,0
2022-12-03T03:48:49.313Z,0
2022-12-03T03:49:50.495Z,0
2022-12-03T03:50:50.686Z,0
2022-12-03T03:51:51.018Z,0
2022-12-03T03:52:52.521Z,0
2022-12-03T03:53:52.171Z,0
2022-12-03T03:54:53.205Z,0
2022-12-03T03:55:53.654Z,0
2022-12-03T03:56:54.556Z,0
2022-12-03T03:57:55.765Z,0
2022-12-03T03:58:56.375Z,0
2022-12-03T03:59:57.680Z,0
2022-12-03T04:00:58.246Z,0
2022-12-03T04:01:59.087Z,0
2022-12-03T04:02:59.710Z,0
2022-12-03T04:04:01.186Z,0
2022-12-03T04:05:02.169Z,0
2022-12-03T04:06:02.379Z,0
2022-12-03T04:07:02.306Z,0
2022-12-03T04:08:03.348Z,0
2022-12-03T04:09:03.385Z,0
2022-12-03T04:10:04.583Z,0
2022-12-03T04:11:04.792Z,0
2022-12-03T04:12:05.420Z,0
2022-12-03T04:13:06.613Z,0
2022-12-03T04:14:06.930Z,0
2022-12-03T04:15:07.464Z,0
2022-12-03T04:16:08.010Z,0
2022-12-03T04:17:08.580Z,0
2022-12-03T04:18:09.066Z,0
2022-12-03T04:19:09.979Z,0
2022-12-03T04:20:10.593Z,0
2022-12-03T04:21:11.217Z,0
2022-12-03T04:22:12.121Z,0
2022-12-03T04:23:13.049Z,0
2022-12-03T04:24:13.997Z,0
2022-12-03T04:25:14.849Z,0
2022-12-03T04:26:15.335Z,0
2022-12-03T04:27:15.547Z,0
2022-12-03T04:28:15.730Z,0
2022-12-03T04:29:15.920Z,0
2022-12-03T04:30:17.290Z,0
2022-12-03T04:31:17.777Z,0
2022-12-03T04:32:17.223Z,0
2022-12-03T04:33:18.160Z,0
2022-12-03T04:34:18.771Z,0
2022-12-03T04:35:19.700Z,0
2022-12-03T04:36:20.696Z,0
2022-12-03T04:37:21.026Z,0
2022-12-03T04:38:22.251Z,0
2022-12-03T04:39:22.476Z,0
2022-12-03T04:40:22.672Z,0
2022-12-03T04:41:23.283Z,0
2022-12-03T04:42:23.928Z,0
2022-12-03T04:43:25.510Z,0
2022-12-03T04:44:25.431Z,0
2022-12-03T04:45:26.226Z,0
2022-12-03T04:46:27.506Z,0
2022-12-03T04:47:27.847Z,0
2022-12-03T04:48:28.453Z,0
2022-12-03T04:49:28.640Z,0
2022-12-03T04:50:29.257Z,0
2022-12-03T04:51:30.172Z,0
2022-12-03T04:52:30.082Z,0
2022-12-03T04:53:31.284Z,0
2022-12-03T04:54:31.730Z,0
2022-12-03T04:55:31.439Z,0
2022-12-03T04:56:32.637Z,0
2022-12-03T04:57:32.862Z,0
2022-12-03T04:58:33.080Z,0
2022-12-03T04:59:33.405Z,0
2022-12-03T05:00:34.918Z,0
2022-12-03T05:01:35.357Z,0
2022-12-03T05:02:35.985Z,0
2022-12-03T05:03:36.412Z,0
2022-12-03T05:04:36.029Z,0
2022-12-03T05:05:36.452Z,0
2022-12-03T05:06:37.667Z,0
2022-12-03T05:07:38.865Z,0
2022-12-03T05:08:38.700Z,0
2022-12-03T05:09:39.632Z,0
2022-12-03T05:10:40.823Z,0
2022-12-03T05:11:41.040Z,0
2022-12-03T05:12:41.538Z,0
2022-12-03T05:13:43.170Z,0
2022-12-03T05:14:42.432Z,0
2022-12-03T05:15:43.518Z,0
2022-12-03T05:16:43.870Z,0
2022-12-03T05:17:43.954Z,0
2022-12-03T05:18:44.161Z,0
2022-12-03T05:19:45.059Z,0
2022-12-03T05:20:52.907Z,0
2022-12-03T05:21:45.909Z,0
2022-12-03T05:22:46.816Z,0
2022-12-03T05:23:47.742Z,0
2022-12-03T05:24:48.677Z,0
2022-12-03T05:25:48.924Z,0
2022-12-03T05:26:50.106Z,0
2022-12-03T05:27:49.726Z,0
2022-12-03T05:28:50.336Z,0
2022-12-03T05:29:50.945Z,0
2022-12-03T05:30:52.567Z,0
2022-12-03T05:31:52.624Z,0
2022-12-03T05:32:53.264Z,0
2022-12-03T05:33:55.532Z,0
2022-12-03T05:34:54.264Z,0
2022-12-03T05:35:54.077Z,0
2022-12-03T05:36:55.265Z,0
2022-12-03T05:37:55.918Z,0
2022-12-03T05:38:56.122Z,0
2022-12-03T05:39:57.050Z,0
2022-12-03T05:40:56.946Z,0
2022-12-03T05:41:58.128Z,0
2022-12-03T05:42:58.152Z,0
2022-12-03T05:43:59.159Z,0
2022-12-03T05:45:00.898Z,0
2022-12-03T05:46:01.210Z,0
2022-12-03T05:47:01.824Z,0
2022-12-03T05:48:01.735Z,0
2022-12-03T05:49:02.926Z,0
2022-12-03T05:50:03.854Z,0
2022-12-03T05:51:03.764Z,0
2022-12-03T05:52:09.850Z,0
2022-12-03T05:53:05.062Z,0
2022-12-03T05:54:06.292Z,0
2022-12-03T05:55:06.867Z,0
2022-12-03T05:56:06.876Z,0
2022-12-03T05:57:07.513Z,0
2022-12-03T05:58:08.448Z,0
2022-12-03T05:59:09.363Z,0
2022-12-03T06:00:09.840Z,0
2022-12-03T06:01:10.081Z,0
2022-12-03T06:02:10.127Z,0
2022-12-03T06:03:11.455Z,0
2022-12-03T06:04:10.867Z,0
2022-12-03T06:05:11.779Z,0
2022-12-03T06:06:13.053Z,0
2022-12-03T06:07:19.944Z,0
2022-12-03T06:08:13.546Z,0
2022-12-03T06:09:14.907Z,0
2022-12-03T06:10:14.838Z,0
2022-12-03T06:11:14.462Z,0
2022-12-03T06:12:15.077Z,0
2022-12-03T06:13:16.309Z,0
2022-12-03T06:14:16.930Z,0
2022-12-03T06:15:17.273Z,0
2022-12-03T06:16:19.066Z,0
2022-12-03T06:17:18.861Z,0
2022-12-03T06:18:19.773Z,0
2022-12-03T06:19:19.956Z,0
2022-12-03T06:20:20.441Z,0
2022-12-03T06:21:21.366Z,0
2022-12-03T06:22:21.554Z,0
2022-12-03T06:23:22.023Z,0
2022-12-03T06:24:22.950Z,0
2022-12-03T06:25:22.865Z,0
2022-12-03T06:26:23.864Z,4
2022-12-03T06:27:25.078Z,4
2022-12-03T06:28:24.984Z,0
2022-12-03T06:29:26.472Z,0
2022-12-03T06:30:26.663Z,4
2022-12-03T06:31:27.516Z,4
2022-12-03T06:32:27.813Z,4
2022-12-03T06:33:28.722Z,4
2022-12-03T06:34:29.202Z,4
2022-12-03T06:35:28.785Z,4
2022-12-03T06:36:34.439Z,8
2022-12-03T06:37:30.324Z,4
2022-12-03T06:38:31.211Z,8
2022-12-03T06:39:32.157Z,8
2022-12-03T06:40:33.378Z,8
2022-12-03T06:41:33.252Z,12
2022-12-03T06:42:34.166Z,12
2022-12-03T06:43:35.667Z,12
2022-12-03T06:44:36.075Z,12
2022-12-03T06:45:35.977Z,12
2022-12-03T06:46:37.852Z,16
2022-12-03T06:47:37.905Z,16
2022-12-03T06:48:39.113Z,20
2022-12-03T06:49:39.007Z,20
2022-12-03T06:50:39.906Z,20
2022-12-03T06:51:40.506Z,20
2022-12-03T06:52:41.703Z,24
2022-12-03T06:53:41.633Z,24
2022-12-03T06:54:42.278Z,28
2022-12-03T06:55:42.505Z,28
2022-12-03T06:56:51.485Z,32
2022-12-03T06:57:43.388Z,32
2022-12-03T06:58:44.611Z,36
2022-12-03T06:59:44.801Z,36
2022-12-03T07:00:45.302Z,36
2022-12-03T07:01:45.464Z,36
2022-12-03T07:02:46.289Z,36
2022-12-03T07:03:46.611Z,36
2022-12-03T07:04:52.211Z,40
2022-12-03T07:05:48.001Z,40
2022-12-03T07:06:48.282Z,44
2022-12-03T07:07:48.738Z,44
2022-12-03T07:08:49.014Z,44
2022-12-03T07:09:49.528Z,48
2022-12-03T07:10:49.465Z,48
2022-12-03T07:11:50.069Z,48
2022-12-03T07:12:50.689Z,48
2022-12-03T07:13:51.887Z,52
2022-12-03T07:14:52.591Z,52
2022-12-03T07:15:53.625Z,52
2022-12-03T07:16:54.863Z,56
2022-12-03T07:17:55.341Z,56
2022-12-03T07:18:55.238Z,60
2022-12-03T07:19:56.155Z,64
2022-12-03T07:20:56.522Z,68
2022-12-03T07:21:57.430Z,68
2022-12-03T07:22:58.330Z,72
2022-12-03T07:23:59.516Z,72
2022-12-03T07:25:01.045Z,72
2022-12-03T07:26:00.971Z,72
2022-12-03T07:27:01.254Z,72
2022-12-03T07:28:01.156Z,76
2022-12-03T07:29:02.365Z,88
2022-12-03T07:30:02.696Z,96
2022-12-03T07:31:04.473Z,92
2022-12-03T07:32:04.946Z,96
2022-12-03T07:33:05.578Z,104
2022-12-03T07:34:06.474Z,112
2022-12-03T07:35:08.043Z,112
2022-12-03T07:36:07.986Z,124
2022-12-03T07:37:09.254Z,140
2022-12-03T07:38:09.979Z,140
2022-12-03T07:39:09.896Z,140
2022-12-03T07:40:11.105Z,124
2022-12-03T07:41:11.054Z,108
2022-12-03T07:42:11.234Z,108
2022-12-03T07:43:11.442Z,104
2022-12-03T07:44:20.327Z,104
2022-12-03T07:45:12.915Z,104
2022-12-03T07:46:13.271Z,104
2022-12-03T07:47:14.667Z,104
2022-12-03T07:48:14.900Z,104
2022-12-03T07:49:15.815Z,112
2022-12-03T07:50:16.424Z,112
2022-12-03T07:51:21.013Z,112
2022-12-03T07:52:16.892Z,116
2022-12-03T07:53:17.798Z,116
2022-12-03T07:54:18.288Z,120
2022-12-03T07:55:18.554Z,116
2022-12-03T07:56:19.773Z,120
2022-12-03T07:57:19.653Z,120
2022-12-03T07:58:20.276Z,120
2022-12-03T07:59:21.487Z,120
2022-12-03T08:00:21.103Z,124
2022-12-03T08:01:22.611Z,128
2022-12-03T08:02:27.708Z,144
2022-12-03T08:03:23.711Z,152
2022-12-03T08:04:24.452Z,160
2022-12-03T08:05:25.646Z,164
2022-12-03T08:06:25.832Z,176
2022-12-03T08:07:26.334Z,184
2022-12-03T08:08:27.774Z,176
2022-12-03T08:09:27.540Z,164
2022-12-03T08:10:28.169Z,180
2022-12-03T08:11:29.109Z,212
2022-12-03T08:12:29.293Z,220
2022-12-03T08:13:29.185Z,196
2022-12-03T08:14:30.382Z,208
2022-12-03T08:15:37.198Z,252
2022-12-03T08:16:32.324Z,308
2022-12-03T08:17:32.721Z,280
2022-12-03T08:18:33.084Z,320
2022-12-03T08:19:34.269Z,340
2022-12-03T08:20:34.184Z,308
2022-12-03T08:21:35.098Z,344
2022-12-03T08:22:34.718Z,388
2022-12-03T08:23:35.628Z,424
2022-12-03T08:24:35.968Z,424
2022-12-03T08:25:37.618Z,424
2022-12-03T08:26:38.842Z,400
2022-12-03T08:27:38.843Z,404
2022-12-03T08:28:39.338Z,416
2022-12-03T08:29:38.974Z,420
2022-12-03T08:30:39.589Z,464
2022-12-03T08:31:44.434Z,504
2022-12-03T08:32:41.261Z,448
2022-12-03T08:33:41.218Z,420
2022-12-03T08:34:42.134Z,448
2022-12-03T08:35:42.748Z,452
2022-12-03T08:36:43.646Z,420
2022-12-03T08:37:44.376Z,508
2022-12-03T08:38:44.736Z,476
2022-12-03T08:39:45.938Z,456
2022-12-03T08:40:46.854Z,472
2022-12-03T08:41:47.089Z,548
2022-12-03T08:42:47.398Z,540
2022-12-03T08:43:48.606Z,496
2022-12-03T08:44:48.238Z,504
2022-12-03T08:45:49.510Z,488
2022-12-03T08:46:49.606Z,460
2022-12-03T08:47:50.625Z,460
2022-12-03T08:48:56.826Z,580
2022-12-03T08:49:51.376Z,636
2022-12-03T08:50:51.588Z,552
2022-12-03T08:51:51.248Z,528
2022-12-03T08:52:52.187Z,572
2022-12-03T08:53:55.419Z,572
2022-12-03T08:54:52.692Z,552
2022-12-03T08:55:53.037Z,528
2022-12-03T08:56:53.573Z,504
2022-12-03T08:57:53.352Z,572
2022-12-03T08:58:54.541Z,604
2022-12-03T08:59:57.300Z,552
2022-12-03T09:00:56.236Z,564
2022-12-03T09:01:57.735Z,568
2022-12-03T09:02:57.961Z,608
2022-12-03T09:03:58.416Z,548
2022-12-03T09:04:59.673Z,564
2022-12-03T09:05:59.284Z,584
2022-12-03T09:06:59.920Z,568
2022-12-03T09:08:01.464Z,552
2022-12-03T09:09:06.489Z,548
2022-12-03T09:10:02.099Z,552
2022-12-03T09:11:03.602Z,592
2022-12-03T09:12:03.813Z,612
2022-12-03T09:13:04.291Z,648
2022-12-03T09:14:03.902Z,684
2022-12-03T09:15:04.449Z,628
2022-12-03T09:16:05.143Z,624
2022-12-03T09:17:06.642Z,632
2022-12-03T09:18:06.674Z,584
2022-12-03T09:19:07.291Z,568
2022-12-03T09:20:07.951Z,628
2022-12-03T09:21:08.581Z,664
2022-12-03T09:22:09.792Z,640
2022-12-03T09:23:10.983Z,652
2022-12-03T09:24:11.186Z,676
2022-12-03T09:25:11.099Z,660
2022-12-03T09:26:11.612Z,684
2022-12-03T09:27:11.546Z,736
2022-12-03T09:28:12.534Z,640
2022-12-03T09:29:18.552Z,640
2022-12-03T09:30:14.053Z,656
2022-12-03T09:31:14.545Z,620
2022-12-03T09:32:24.295Z,560
2022-12-03T09:33:15.674Z,564
2022-12-03T09:34:16.580Z,588
2022-12-03T09:35:16.474Z,584
2022-12-03T09:36:17.507Z,584
2022-12-03T09:37:17.707Z,560
2022-12-03T09:38:18.112Z,528
2022-12-03T09:39:18.745Z,524
2022-12-03T09:40:19.659Z,532
2022-12-03T09:41:20.150Z,548
2022-12-03T09:42:19.775Z,576
2022-12-03T09:43:21.268Z,592
2022-12-03T09:44:28.985Z,576
2022-12-03T09:45:22.223Z,564
2022-12-03T09:46:23.526Z,560
2022-12-03T09:47:23.576Z,592
2022-12-03T09:48:24.325Z,560
2022-12-03T09:49:27.396Z,520
2022-12-03T09:50:26.278Z,552
2022-12-03T09:51:26.197Z,576
2022-12-03T09:52:27.986Z,576
2022-12-03T09:53:27.654Z,608
2022-12-03T09:54:28.384Z,624
2022-12-03T09:55:28.892Z,644
2022-12-03T09:56:29.398Z,644
2022-12-03T09:57:29.072Z,624
2022-12-03T09:58:34.452Z,580
2022-12-03T09:59:30.212Z,596
2022-12-03T10:00:30.828Z,592
2022-12-03T10:01:36.163Z,564
2022-12-03T10:02:31.239Z,560
2022-12-03T10:03:36.142Z,580
2022-12-03T10:04:32.061Z,580
2022-12-03T10:05:31.914Z,572
2022-12-03T10:06:32.864Z,552
2022-12-03T10:07:33.035Z,564
2022-12-03T10:08:37.836Z,568
2022-12-03T10:09:33.871Z,552
2022-12-03T10:10:34.882Z,556
2022-12-03T10:11:35.805Z,548
2022-12-03T10:12:35.741Z,584
2022-12-03T10:13:37.691Z,636
2022-12-03T10:14:37.304Z,648
2022-12-03T10:15:37.678Z,628
2022-12-03T10:16:39.170Z,632
2022-12-03T10:17:39.464Z,664
2022-12-03T10:18:47.685Z,616
2022-12-03T10:19:39.685Z,576
2022-12-03T10:20:40.612Z,532
2022-12-03T10:21:40.813Z,536
2022-12-03T10:22:41.014Z,552
2022-12-03T10:23:42.222Z,596
2022-12-03T10:24:42.913Z,616
2022-12-03T10:25:43.554Z,584
2022-12-03T10:26:44.186Z,548
2022-12-03T10:27:45.430Z,540
2022-12-03T10:28:45.694Z,560
2022-12-03T10:29:46.211Z,560
2022-12-03T10:30:47.158Z,556
2022-12-03T10:31:47.173Z,536
2022-12-03T10:32:48.121Z,508
2022-12-03T10:33:49.055Z,488
2022-12-03T10:34:49.267Z,460
2022-12-03T10:35:49.420Z,384
2022-12-03T10:36:50.005Z,340
2022-12-03T10:37:49.919Z,320
2022-12-03T10:38:51.215Z,288
2022-12-03T10:39:55.523Z,248
2022-12-03T10:40:51.623Z,228
2022-12-03T10:41:52.609Z,224
2022-12-03T10:42:52.825Z,228
2022-12-03T10:43:53.724Z,252
2022-12-03T10:44:54.364Z,256
2022-12-03T10:45:59.031Z,264
2022-12-03T10:46:55.588Z,264
2022-12-03T10:47:55.785Z,268
2022-12-03T10:48:56.544Z,280
2022-12-03T10:49:57.486Z,276
2022-12-03T10:50:57.978Z,268
2022-12-03T10:51:58.189Z,260
2022-12-03T10:52:58.383Z,248
2022-12-03T10:53:59.305Z,244
2022-12-03T10:55:00.668Z,256
2022-12-03T10:56:00.874Z,264
2022-12-03T10:57:01.092Z,268
2022-12-03T10:58:01.603Z,276
2022-12-03T10:59:02.179Z,272
2022-12-03T11:00:02.099Z,272
2022-12-03T11:01:03.454Z,280
2022-12-03T11:02:04.505Z,288
2022-12-03T11:03:08.437Z,284
2022-12-03T11:04:04.796Z,284
2022-12-03T11:05:05.518Z,284
2022-12-03T11:06:05.721Z,300
2022-12-03T11:07:05.621Z,316
2022-12-03T11:08:07.113Z,324
2022-12-03T11:09:15.090Z,336
2022-12-03T11:10:08.006Z,348
2022-12-03T11:11:08.928Z,352
2022-12-03T11:12:08.850Z,340
2022-12-03T11:13:09.782Z,336
2022-12-03T11:14:10.682Z,340
2022-12-03T11:15:10.940Z,352
2022-12-03T11:16:11.709Z,364
2022-12-03T11:17:12.017Z,352
2022-12-03T11:18:11.948Z,332
2022-12-03T11:19:13.548Z,316
2022-12-03T11:20:18.138Z,316
2022-12-03T11:21:13.571Z,316
2022-12-03T11:22:15.060Z,308
2022-12-03T11:23:15.244Z,292
2022-12-03T11:24:14.858Z,280
2022-12-03T11:25:16.072Z,264
2022-12-03T11:26:25.396Z,260
2022-12-03T11:27:17.071Z,264
2022-12-03T11:28:18.599Z,268
2022-12-03T11:29:18.593Z,264
2022-12-03T11:30:18.779Z,264
2022-12-03T11:31:19.177Z,268
2022-12-03T11:32:19.453Z,276
2022-12-03T11:33:19.801Z,284
2022-12-03T11:34:19.762Z,288
2022-12-03T11:35:20.705Z,280
2022-12-03T11:36:31.890Z,276
2022-12-03T11:37:22.421Z,272
2022-12-03T11:38:22.910Z,264
2022-12-03T11:39:22.620Z,264
2022-12-03T11:40:23.830Z,256
2022-12-03T11:41:23.582Z,264
2022-12-03T11:42:24.803Z,272
2022-12-03T11:43:24.765Z,276
2022-12-03T11:44:25.097Z,272
2022-12-03T11:45:26.013Z,272
2022-12-03T11:46:26.381Z,272
2022-12-03T11:47:26.365Z,268
2022-12-03T11:48:26.709Z,264
2022-12-03T11:49:27.738Z,276
2022-12-03T11:50:27.952Z,276
2022-12-03T11:51:28.148Z,280
2022-12-03T11:52:29.049Z,276
2022-12-03T11:53:29.423Z,272
2022-12-03T11:54:30.338Z,276
2022-12-03T11:55:30.971Z,276
2022-12-03T11:56:30.870Z,264
2022-12-03T11:57:32.090Z,268
2022-12-03T11:58:32.604Z,260
2022-12-03T11:59:32.332Z,256
2022-12-03T12:00:33.544Z,264
2022-12-03T12:01:38.717Z,268
2022-12-03T12:02:34.908Z,264
2022-12-03T12:03:38.806Z,256
2022-12-03T12:04:35.738Z,244
2022-12-03T12:05:35.862Z,228
2022-12-03T12:06:36.490Z,224
2022-12-03T12:07:37.413Z,228
2022-12-03T12:08:37.699Z,224
2022-12-03T12:09:38.696Z,220
2022-12-03T12:10:39.346Z,208
2022-12-03T12:11:39.254Z,204
2022-12-03T12:12:40.457Z,204
2022-12-03T12:13:41.173Z,208
2022-12-03T12:14:42.077Z,208
2022-12-03T12:15:43.031Z,208
2022-12-03T12:16:44.800Z,220
2022-12-03T12:17:44.089Z,224
2022-12-03T12:18:44.317Z,228
2022-12-03T12:19:46.450Z,240
2022-12-03T12:20:45.144Z,244
2022-12-03T12:21:46.161Z,248
2022-12-03T12:22:47.056Z,252
2022-12-03T12:23:46.672Z,252
2022-12-03T12:24:47.882Z,260
2022-12-03T12:25:52.535Z,268
2022-12-03T12:26:47.886Z,280
2022-12-03T12:27:48.810Z,284
2022-12-03T12:28:49.761Z,284
2022-12-03T12:29:50.351Z,280
2022-12-03T12:30:51.264Z,280
2022-12-03T12:31:59.519Z,284
2022-12-03T12:32:52.138Z,280
2022-12-03T12:33:51.792Z,280
2022-12-03T12:34:53.297Z,272
2022-12-03T12:35:53.801Z,268
2022-12-03T12:36:53.419Z,264
2022-12-03T12:38:05.760Z,248
2022-12-03T12:38:54.670Z,236
2022-12-03T12:39:55.690Z,240
2022-12-03T12:40:55.598Z,240
2022-12-03T12:41:56.517Z,240
2022-12-03T12:42:57.467Z,232
2022-12-03T12:43:58.550Z,224
2022-12-03T12:44:58.753Z,220
2022-12-03T12:45:58.795Z,208
2022-12-03T12:47:00.719Z,196
2022-12-03T12:48:01.297Z,188
2022-12-03T12:49:05.773Z,184
2022-12-03T12:50:04.040Z,188
2022-12-03T12:51:02.271Z,180
2022-12-03T12:52:02.909Z,172
2022-12-03T12:53:02.956Z,164
2022-12-03T12:54:04.142Z,160
2022-12-03T12:55:10.892Z,164
2022-12-03T12:56:04.791Z,172
2022-12-03T12:57:05.705Z,172
2022-12-03T12:58:05.904Z,172
2022-12-03T12:59:06.629Z,160
2022-12-03T13:00:07.909Z,152
2022-12-03T13:01:09.250Z,152
2022-12-03T13:02:15.789Z,160
2022-12-03T13:03:09.569Z,160
2022-12-03T13:04:10.781Z,164
2022-12-03T13:05:11.710Z,152
2022-12-03T13:06:11.637Z,152
2022-12-03T13:07:12.569Z,148
2022-12-03T13:08:18.328Z,148
2022-12-03T13:09:12.819Z,144
2022-12-03T13:10:13.544Z,148
2022-12-03T13:11:13.864Z,152
2022-12-03T13:12:14.773Z,152
2022-12-03T13:13:15.003Z,148
2022-12-03T13:14:14.924Z,152
2022-12-03T13:15:16.136Z,152
2022-12-03T13:16:16.003Z,152
2022-12-03T13:17:17.074Z,152
2022-12-03T13:18:16.986Z,152
2022-12-03T13:19:18.183Z,152
2022-12-03T13:20:20.917Z,152
2022-12-03T13:21:19.847Z,152
2022-12-03T13:22:20.231Z,160
2022-12-03T13:23:21.164Z,164
2022-12-03T13:24:21.500Z,168
2022-12-03T13:26:18.682Z,180
2022-12-03T13:28:25.922Z,184
2022-12-03T13:29:26.948Z,184
2022-12-03T13:30:27.148Z,192
2022-12-03T13:31:28.463Z,196
2022-12-03T13:32:28.471Z,196
2022-12-03T13:33:28.968Z,208
2022-12-03T13:34:28.599Z,220
2022-12-03T13:35:29.251Z,232
2022-12-03T13:36:30.479Z,224
2022-12-03T13:37:30.074Z,224
2022-12-03T13:38:31.077Z,232
2022-12-03T13:39:31.806Z,236
2022-12-03T13:40:32.717Z,228
2022-12-03T13:41:33.209Z,220
2022-12-03T13:42:33.485Z,216
2022-12-03T13:43:34.515Z,212
2022-12-03T13:44:33.802Z,216
2022-12-03T13:45:35.479Z,208
2022-12-03T13:46:35.849Z,196
2022-12-03T13:47:35.755Z,192
2022-12-03T13:48:36.143Z,200
2022-12-03T13:49:36.859Z,208
2022-12-03T13:50:38.061Z,232
2022-12-03T13:51:38.576Z,232
2022-12-03T13:52:38.494Z,244
2022-12-03T13:53:39.875Z,276
2022-12-03T13:54:40.085Z,276
2022-12-03T13:55:41.297Z,252
2022-12-03T13:56:41.947Z,240
2022-12-03T13:57:42.841Z,228
2022-12-03T13:58:44.063Z,216
2022-12-03T13:59:44.096Z,224
2022-12-03T14:00:43.902Z,232
2022-12-03T14:01:46.207Z,244
2022-12-03T14:02:45.382Z,240
2022-12-03T14:03:45.447Z,236
2022-12-03T14:04:46.364Z,220
2022-12-03T14:05:47.168Z,196
2022-12-03T14:06:47.662Z,184
2022-12-03T14:07:48.167Z,180
2022-12-03T14:08:48.380Z,180
2022-12-03T14:09:48.544Z,172
2022-12-03T14:10:48.812Z,164
2022-12-03T14:11:49.402Z,156
2022-12-03T14:12:50.591Z,156
2022-12-03T14:13:50.815Z,148
2022-12-03T14:14:51.460Z,148
2022-12-03T14:15:51.941Z,140
2022-12-03T14:16:56.765Z,140
2022-12-03T14:17:52.517Z,132
2022-12-03T14:18:52.723Z,132
2022-12-03T14:19:53.110Z,132
2022-12-03T14:20:52.885Z,128
2022-12-03T14:21:54.383Z,136
2022-12-03T14:22:59.181Z,144
2022-12-03T14:23:55.401Z,148
2022-12-03T14:24:56.045Z,148
2022-12-03T14:25:56.665Z,148